Time;durP1;ratioP1;P1;durP2;ratioP2;P2;SDS_P1;SDS_P2;PMS_P1;PMS_P2;Temp;Humidity;BMP_temperature;BMP_pressure;BME280_temperature;BME280_humidity;BME280_pressure;Samples;Min_cycle;Max_cycle;Signal;HPM_P1;HPM_P2
2021/03/08 00:01:18;;;;;;;;;8.67;8.67;;;;;1.98;71.28;101254.81;4857050;29;8872;-80
2021/03/08 00:04:01;;;;;;;;;14.00;14.00;;;;;2.13;70.86;101257.66;4858042;29;8876;-81
2021/03/08 00:06:29;;;;;;;;;15.33;13.67;;;;;2.09;71.81;101247.56;4852581;29;8891;-80
2021/03/08 00:09:05;;;;;;;;;12.00;12.00;;;;;2.00;71.38;101251.84;4872226;29;8973;-80
2021/03/08 00:11:33;;;;;;;;;8.67;8.67;;;;;1.74;72.87;101248.06;4869842;29;8886;-80
2021/03/08 00:14:01;;;;;;;;;13.33;11.67;;;;;2.07;72.69;101244.25;4857237;29;8852;-81
2021/03/08 00:16:28;;;;;;;;;14.67;14.67;;;;;1.92;72.60;101234.06;4862581;29;9034;-80
2021/03/08 00:19:24;;;;;;;;;14.67;14.67;;;;;2.23;71.26;101243.31;4872849;29;8898;-80
2021/03/08 00:21:51;;;;;;;;;13.00;13.00;;;;;2.05;72.23;101225.41;4875077;29;8872;-80
2021/03/08 00:24:47;;;;;;;;;17.67;16.33;;;;;2.06;72.02;101231.69;4874360;29;11776;-80
2021/03/08 00:27:43;;;;;;;;;12.00;12.00;;;;;2.19;72.27;101215.69;4874453;29;8867;-80
2021/03/08 00:30:42;;;;;;;;;13.67;13.67;;;;;2.22;72.32;101223.38;4872217;29;11805;-80
2021/03/08 00:33:37;;;;;;;;;17.00;14.67;;;;;2.28;71.75;101218.75;4871670;29;11710;-80
2021/03/08 00:36:34;;;;;;;;;14.00;14.00;;;;;2.36;71.61;101215.53;4872493;29;8989;-80
2021/03/08 00:39:29;;;;;;;;;11.33;11.33;;;;;2.12;72.37;101209.63;4862590;29;11835;-81
2021/03/08 00:41:57;;;;;;;;;13.33;13.33;;;;;2.16;72.64;101205.31;4862617;29;8886;-80
2021/03/08 00:44:26;;;;;;;;;11.00;11.00;;;;;2.05;73.26;101200.03;4860773;29;11846;-80
2021/03/08 00:47:06;;;;;;;;;18.33;16.67;;;;;2.32;72.13;101189.88;4878121;29;11705;-80
2021/03/08 00:49:33;;;;;;;;;15.67;15.67;;;;;2.31;71.52;101182.75;4872913;29;11764;-82
2021/03/08 00:52:15;;;;;;;;;11.67;11.67;;;;;2.06;73.84;101179.84;4865601;29;12485;-81
2021/03/08 00:54:42;;;;;;;;;15.00;15.00;;;;;1.87;73.96;101172.09;4883114;29;11714;-80
2021/03/08 00:57:26;;;;;;;;;18.33;18.33;;;;;2.13;73.25;101169.53;4882296;29;12479;-80
2021/03/08 01:00:11;;;;;;;;;16.67;15.33;;;;;1.86;73.71;101169.63;4872320;29;12616;-80
2021/03/08 01:02:39;;;;;;;;;17.00;17.00;;;;;1.92;73.28;101165.84;4874066;29;8869;-80
2021/03/08 01:05:22;;;;;;;;;15.33;15.33;;;;;1.93;74.19;101167.50;4870512;29;8887;-80
2021/03/08 01:07:51;;;;;;;;;16.33;16.33;;;;;1.99;73.84;101165.59;4885182;29;8937;-80
2021/03/08 01:10:28;;;;;;;;;18.33;18.33;;;;;2.03;73.26;101156.66;4888318;29;11749;-80
2021/03/08 01:13:24;;;;;;;;;10.67;10.67;;;;;1.99;73.45;101162.88;4874071;29;11775;-80
2021/03/08 01:15:52;;;;;;;;;11.00;11.00;;;;;2.11;73.75;101160.78;4893847;29;8933;-81
2021/03/08 01:18:41;;;;;;;;;16.00;13.00;;;;;2.02;73.52;101167.84;4890167;29;11694;-81
2021/03/08 01:21:23;;;;;;;;;10.00;10.00;;;;;2.10;73.66;101164.59;4880668;29;11720;-81
2021/03/08 01:23:50;;;;;;;;;17.00;17.00;;;;;2.01;73.46;101158.81;4876729;29;8859;-80
2021/03/08 01:26:32;;;;;;;;;17.33;17.33;;;;;1.98;74.00;101153.88;4891930;29;8903;-79
2021/03/08 01:29:02;;;;;;;;;14.33;14.33;;;;;2.11;73.31;101150.69;4889637;29;8891;-80
2021/03/08 01:31:38;;;;;;;;;17.00;17.00;;;;;2.05;74.28;101145.47;4891432;29;8968;-80
2021/03/08 01:34:34;;;;;;;;;19.00;19.00;;;;;2.13;74.08;101142.25;4893884;29;8891;-80
2021/03/08 01:37:30;;;;;;;;;23.00;20.33;;;;;2.13;73.73;101143.06;4890198;29;8914;-80
2021/03/08 01:40:28;;;;;;;;;18.67;18.67;;;;;2.18;73.76;101151.28;4868372;29;8880;-80
2021/03/08 01:43:24;;;;;;;;;15.67;15.33;;;;;2.07;73.68;101144.13;4858662;29;8855;-80
2021/03/08 01:46:11;;;;;;;;;20.00;20.00;;;;;2.15;73.24;101138.19;4874007;29;8889;-80
2021/03/08 01:48:52;;;;;;;;;17.00;17.00;;;;;2.25;73.37;101137.41;4850700;29;8856;-80
2021/03/08 01:51:21;;;;;;;;;15.33;15.33;;;;;2.19;73.73;101143.94;4865101;29;8898;-80
2021/03/08 01:53:49;;;;;;;;;17.67;16.67;;;;;2.13;74.14;101139.50;4866178;29;8886;-80
2021/03/08 01:56:16;;;;;;;;;19.33;17.67;;;;;2.08;74.67;101140.31;4873701;29;9009;-80
2021/03/08 01:58:44;;;;;;;;;22.33;20.67;;;;;2.39;73.63;101138.59;4874001;29;8931;-80
2021/03/08 02:01:40;;;;;;;;;19.67;17.00;;;;;2.06;75.00;101144.38;4874237;29;8891;-80
2021/03/08 02:04:38;;;;;;;;;23.67;23.00;;;;;2.11;74.86;101138.97;4875500;29;8862;-80
2021/03/08 02:07:34;;;;;;;;;16.00;14.00;;;;;2.18;75.11;101139.56;4869816;29;8917;-80
2021/03/08 02:10:33;;;;;;;;;14.00;13.00;;;;;2.04;75.78;101135.66;4871790;29;8895;-80
2021/03/08 02:13:38;;;;;;;;;16.00;16.00;;;;;2.09;75.38;101128.31;4861654;29;8866;-81
2021/03/08 02:16:21;;;;;;;;;14.00;13.67;;;;;1.92;75.78;101136.69;4871439;29;8865;-81
2021/03/08 02:18:59;;;;;;;;;18.67;17.67;;;;;2.17;75.45;101146.09;4870132;29;8866;-81
2021/03/08 02:21:44;;;;;;;;;17.33;17.33;;;;;2.00;76.01;101137.28;4857646;29;9009;-80
2021/03/08 02:24:37;;;;;;;;;20.00;19.33;;;;;2.18;75.73;101131.38;4871865;29;8903;-81
2021/03/08 02:28:18;;;;;;;;;20.67;20.00;;;;;2.11;75.71;101131.59;4871623;29;8981;-81
2021/03/08 02:30:49;;;;;;;;;20.33;19.33;;;;;2.18;75.60;101126.72;4787822;29;8902;-81
2021/03/08 02:33:53;;;;;;;;;23.00;18.00;;;;;2.17;75.16;101133.28;4871423;29;9579;-81
2021/03/08 02:36:56;;;;;;;;;28.00;19.00;;;;;2.14;75.96;101136.50;4872100;29;8876;-81
2021/03/08 02:39:58;;;;;;;;;17.00;14.33;;;;;2.18;75.47;101134.09;4859754;29;8871;-80
2021/03/08 02:42:56;;;;;;;;;22.67;22.67;;;;;2.11;75.21;101136.25;4872879;29;8870;-80
2021/03/08 02:45:55;;;;;;;;;21.00;19.33;;;;;2.14;75.58;101135.69;4861477;29;8977;-81
2021/03/08 02:48:52;;;;;;;;;28.00;28.00;;;;;1.98;75.06;101140.22;4874887;29;8879;-80
2021/03/08 02:51:27;;;;;;;;;24.67;23.67;;;;;1.95;74.64;101130.69;4872560;29;8903;-81
2021/03/08 02:54:01;;;;;;;;;24.33;20.00;;;;;2.02;75.06;101124.19;4858978;29;8910;-80
2021/03/08 02:56:33;;;;;;;;;17.67;17.67;;;;;1.98;74.77;101123.06;4872721;29;8907;-81
2021/03/08 02:59:17;;;;;;;;;21.00;20.33;;;;;1.92;75.00;101125.75;4863129;29;8867;-80
2021/03/08 03:01:47;;;;;;;;;22.67;20.67;;;;;1.91;74.97;101123.28;4855882;29;8907;-80
2021/03/08 03:04:30;;;;;;;;;11.00;10.33;;;;;1.95;75.54;101118.94;4857560;29;8951;-80
2021/03/08 03:07:01;;;;;;;;;15.33;15.33;;;;;1.89;75.66;101115.34;4870795;29;8888;-80
2021/03/08 03:09:33;;;;;;;;;18.00;17.33;;;;;2.10;75.75;101110.84;4870284;29;8882;-80
2021/03/08 03:12:16;;;;;;;;;17.33;17.33;;;;;2.16;75.32;101109.81;4857255;29;8923;-80
2021/03/08 03:14:47;;;;;;;;;24.33;20.33;;;;;1.86;77.14;101115.06;4871178;29;8902;-80
2021/03/08 03:17:45;;;;;;;;;20.67;20.67;;;;;2.06;76.30;101114.38;4872662;29;8903;-81
2021/03/08 03:20:50;;;;;;;;;19.67;19.67;;;;;1.78;77.38;101101.94;4871262;29;8889;-80
2021/03/08 03:23:48;;;;;;;;;16.33;16.33;;;;;1.86;77.43;101104.97;4872345;29;11695;-80
2021/03/08 03:26:31;;;;;;;;;24.33;24.33;;;;;2.07;76.82;101102.38;4871759;29;8852;-80
2021/03/08 03:29:27;;;;;;;;;16.33;13.33;;;;;1.73;78.23;101107.34;4871739;29;8880;-80
2021/03/08 03:31:56;;;;;;;;;23.67;21.00;;;;;1.95;77.39;101108.03;4870769;29;8958;-80
2021/03/08 03:34:24;;;;;;;;;17.33;15.67;;;;;1.99;77.50;101097.41;4870213;29;8890;-80
2021/03/08 03:37:23;;;;;;;;;21.33;20.00;;;;;2.10;76.77;101094.50;4870050;29;8890;-80
2021/03/08 03:40:20;;;;;;;;;17.33;16.00;;;;;1.93;76.51;101099.31;4858020;29;8876;-80
2021/03/08 03:43:16;;;;;;;;;20.33;20.33;;;;;2.02;77.07;101095.00;4869556;29;8876;-81
2021/03/08 03:46:12;;;;;;;;;16.33;16.33;;;;;1.86;77.33;101094.06;4870729;29;8957;-79
2021/03/08 03:49:08;;;;;;;;;19.67;19.67;;;;;2.04;76.56;101086.53;4867987;29;8927;-80
2021/03/08 03:51:36;;;;;;;;;20.33;20.33;;;;;1.98;76.91;101088.41;4870711;29;8896;-81
2021/03/08 03:54:23;;;;;;;;;19.33;19.33;;;;;1.70;78.60;101091.50;4870830;29;8879;-81
2021/03/08 03:56:57;;;;;;;;;26.00;24.00;;;;;1.78;78.53;101083.66;4856755;29;9588;-81
2021/03/08 03:59:56;;;;;;;;;18.00;18.00;;;;;1.78;78.45;101080.94;4871589;29;8950;-80
2021/03/08 04:02:31;;;;;;;;;8.00;8.00;;;;;1.98;77.41;101074.75;4867903;29;8871;-80
2021/03/08 04:05:01;;;;;;;;;27.00;24.67;;;;;1.77;77.55;101073.03;4855400;29;8900;-80
2021/03/08 04:07:57;;;;;;;;;16.67;16.67;;;;;1.64;78.50;101077.84;4859235;29;8878;-80
2021/03/08 04:10:26;;;;;;;;;18.33;18.33;;;;;1.57;78.76;101058.16;4855810;29;8884;-80
2021/03/08 04:13:02;;;;;;;;;19.67;19.67;;;;;1.74;78.60;101071.63;4857154;29;8888;-81
2021/03/08 04:15:59;;;;;;;;;24.33;24.33;;;;;1.87;78.00;101075.81;4867618;29;8891;-81
2021/03/08 04:18:59;;;;;;;;;25.33;25.33;;;;;1.88;77.43;101070.06;4868475;29;8869;-80
2021/03/08 04:22:02;;;;;;;;;15.33;15.33;;;;;1.80;78.48;101073.31;4865787;29;8875;-81
2021/03/08 04:24:59;;;;;;;;;17.67;17.67;;;;;1.94;77.34;101069.03;4874845;29;9002;-80
2021/03/08 04:27:33;;;;;;;;;27.67;21.33;;;;;1.98;76.45;101071.22;4854239;29;8974;-81
2021/03/08 04:30:03;;;;;;;;;17.00;17.00;;;;;2.01;77.36;101063.34;4871855;29;9082;-81
2021/03/08 04:32:30;;;;;;;;;26.00;26.00;;;;;1.94;77.23;101055.38;4872796;29;8905;-80
2021/03/08 04:34:59;;;;;;;;;26.67;26.67;;;;;1.98;77.61;101066.56;4870776;29;8974;-80
2021/03/08 04:37:28;;;;;;;;;18.67;17.67;;;;;1.71;78.59;101058.53;4878126;29;8902;-80
2021/03/08 04:39:57;;;;;;;;;21.00;21.00;;;;;1.94;77.10;101062.75;4859985;29;8871;-80
2021/03/08 04:42:29;;;;;;;;;21.67;19.00;;;;;2.04;77.32;101060.06;4871354;29;8868;-80
2021/03/08 04:44:58;;;;;;;;;20.67;20.67;;;;;2.06;77.50;101057.88;4874499;29;8856;-79
2021/03/08 04:47:29;;;;;;;;;22.67;22.33;;;;;2.13;77.19;101061.19;4873030;29;8974;-78
2021/03/08 04:49:57;;;;;;;;;21.67;20.67;;;;;2.09;77.72;101053.84;4860170;29;8874;-80
2021/03/08 04:52:46;;;;;;;;;20.00;20.00;;;;;2.04;77.59;101051.88;4865737;29;8895;-80
2021/03/08 04:55:24;;;;;;;;;25.00;25.00;;;;;2.12;77.60;101051.38;4856249;29;8858;-81
2021/03/08 04:57:54;;;;;;;;;28.00;28.00;;;;;2.13;77.26;101055.75;4854637;29;8876;-82
2021/03/08 05:00:49;;;;;;;;;20.67;19.67;;;;;2.20;77.22;101052.78;4864512;29;8896;-81
2021/03/08 05:03:36;;;;;;;;;24.00;23.67;;;;;2.22;76.88;101050.59;4879230;29;8872;-81
2021/03/08 05:06:07;;;;;;;;;24.00;22.00;;;;;2.06;77.28;101057.06;4873773;29;8875;-81
2021/03/08 05:08:39;;;;;;;;;29.33;28.67;;;;;2.33;76.51;101048.75;4878313;29;8913;-81
2021/03/08 05:11:07;;;;;;;;;19.33;18.00;;;;;2.16;76.39;101059.88;4874279;29;8864;-81
2021/03/08 05:13:51;;;;;;;;;23.33;23.00;;;;;2.36;76.38;101045.47;4875438;29;8951;-82
2021/03/08 05:16:48;;;;;;;;;22.67;20.33;;;;;2.49;75.59;101050.44;4870534;29;8922;-80
2021/03/08 05:19:46;;;;;;;;;24.00;23.33;;;;;2.59;75.16;101052.38;4879560;29;9602;-80
2021/03/08 05:22:28;;;;;;;;;26.33;26.33;;;;;2.72;75.21;101054.59;4871454;29;8883;-81
2021/03/08 05:24:55;;;;;;;;;26.33;25.33;;;;;2.72;75.13;101055.41;4874388;29;8872;-81
2021/03/08 05:27:50;;;;;;;;;21.33;21.33;;;;;2.81;74.66;101052.16;4873431;29;8952;-81
2021/03/08 05:30:50;;;;;;;;;24.33;24.33;;;;;2.83;74.78;101052.69;4871970;29;8858;-80
2021/03/08 05:33:50;;;;;;;;;23.33;21.00;;;;;2.72;74.93;101063.59;4878205;29;8884;-80
2021/03/08 05:36:21;;;;;;;;;18.67;18.00;;;;;2.85;74.49;101056.00;4880921;29;8892;-80
2021/03/08 05:39:20;;;;;;;;;25.33;21.67;;;;;3.04;73.88;101052.47;4877279;29;8871;-80
2021/03/08 05:42:17;;;;;;;;;22.33;20.67;;;;;2.93;75.15;101061.75;4870343;29;8879;-81
2021/03/08 05:45:20;;;;;;;;;29.33;28.00;;;;;3.00;75.05;101070.50;4881218;29;8859;-80
2021/03/08 05:48:21;;;;;;;;;22.33;22.33;;;;;3.28;74.13;101068.31;4861129;29;8864;-80
2021/03/08 05:51:20;;;;;;;;;20.33;20.33;;;;;3.17;75.00;101077.63;4874600;29;11708;-80
2021/03/08 05:54:46;;;;;;;;;23.67;22.33;;;;;3.27;74.66;101075.72;4891832;29;11687;-80
2021/03/08 05:58:06;;;;;;;;;24.33;24.33;;;;;3.54;73.46;101066.44;4862047;29;11746;-80
2021/03/08 06:01:23;;;;;;;;;35.00;24.67;;;;;3.51;73.20;101067.78;4873477;29;11810;-81
2021/03/08 06:04:57;;;;;;;;;20.75;20.75;;;;;3.66;73.74;101063.41;4864725;29;11720;-81
2021/03/08 06:08:22;;;;;;;;;24.33;24.33;;;;;3.76;72.95;101066.13;4865243;29;11841;-82
2021/03/08 06:11:19;;;;;;;;;18.50;18.50;;;;;3.93;73.05;101052.97;4869686;29;11703;-81
2021/03/08 06:13:55;;;;;;;;;22.00;22.00;;;;;3.76;72.66;101061.47;4873345;29;12513;-81
2021/03/08 06:16:33;;;;;;;;;22.25;22.25;;;;;4.07;72.25;101061.41;4880020;29;11764;-81
2021/03/08 06:19:30;;;;;;;;;27.25;27.25;;;;;4.27;71.70;101060.50;4873294;29;11788;-80
2021/03/08 06:22:27;;;;;;;;;26.00;24.00;;;;;4.27;71.11;101057.75;4864004;29;11687;-80
2021/03/08 06:25:11;;;;;;;;;26.25;26.00;;;;;4.26;71.07;101064.34;4877730;29;11742;-80
2021/03/08 06:28:10;;;;;;;;;30.33;29.33;;;;;4.34;70.46;101058.28;4879864;29;11736;-82
2021/03/08 06:30:58;;;;;;;;;25.50;25.50;;;;;4.12;71.08;101053.97;4879478;29;11796;-81
2021/03/08 06:33:54;;;;;;;;;29.25;29.25;;;;;4.25;71.03;101051.75;4858364;29;11710;-81
2021/03/08 06:36:51;;;;;;;;;33.25;32.00;;;;;4.35;70.82;101041.56;4862053;29;11705;-82
2021/03/08 06:39:47;;;;;;;;;28.00;27.50;;;;;4.20;70.86;101047.09;4870060;29;11752;-81
2021/03/08 06:42:44;;;;;;;;;24.75;23.50;;;;;4.06;70.83;101055.09;4865025;29;11806;-81
2021/03/08 06:45:40;;;;;;;;;29.25;29.25;;;;;4.22;70.61;101044.09;4867795;29;12540;-81
2021/03/08 06:48:08;;;;;;;;;28.25;28.25;;;;;4.44;69.59;101037.13;4870776;29;11719;-80
2021/03/08 06:51:11;;;;;;;;;33.25;32.75;;;;;4.31;70.52;101043.25;4878410;29;11719;-80
2021/03/08 06:54:17;;;;;;;;;29.00;23.75;;;;;4.57;69.66;101029.41;4859396;29;11722;-79
2021/03/08 06:57:26;;;;;;;;;23.00;23.00;;;;;4.61;69.26;101045.03;4855462;29;11757;-80
2021/03/08 07:00:23;;;;;;;;;27.25;24.75;;;;;4.49;69.40;101027.28;4869396;29;11725;-81
2021/03/08 07:03:33;;;;;;;;;21.50;18.75;;;;;4.81;69.05;101027.63;4865993;29;12145;-80
2021/03/08 07:06:15;;;;;;;;;22.25;22.25;;;;;4.84;68.53;101026.25;4857612;29;11698;-82
2021/03/08 07:09:11;;;;;;;;;31.00;28.25;;;;;4.83;68.11;101027.34;4872058;29;12494;-79
2021/03/08 07:11:43;;;;;;;;;29.50;26.50;;;;;4.96;67.33;101024.78;4869957;29;11706;-80
2021/03/08 07:14:34;;;;;;;;;24.00;22.25;;;;;4.92;67.61;101023.72;4868216;29;11719;-80
2021/03/08 07:17:32;;;;;;;;;27.25;23.25;;;;;5.00;67.06;101014.91;4857162;29;11717;-79
2021/03/08 07:20:16;;;;;;;;;24.25;24.25;;;;;5.21;66.14;101022.94;4858073;29;11871;-79
2021/03/08 07:23:24;;;;;;;;;19.00;19.00;;;;;5.11;65.41;101018.38;4871573;29;11722;-79
2021/03/08 07:26:28;;;;;;;;;18.75;18.75;;;;;4.91;66.17;101024.84;4871365;29;11733;-81
2021/03/08 07:29:24;;;;;;;;;22.50;21.25;;;;;5.58;63.91;101019.59;4858462;29;11876;-78
2021/03/08 07:32:19;;;;;;;;;28.25;26.00;;;;;5.74;63.59;101023.00;4870337;29;11735;-79
2021/03/08 07:35:06;;;;;;;;;25.00;24.25;;;;;5.93;60.88;101010.22;4871392;29;11783;-80
2021/03/08 07:38:03;;;;;;;;;20.25;20.25;;;;;5.80;59.84;101019.09;4868625;29;11921;-80
2021/03/08 07:40:49;;;;;;;;;23.00;22.25;;;;;5.87;59.24;101027.81;4872613;29;11732;-80
2021/03/08 07:43:48;;;;;;;;;16.75;16.00;;;;;5.99;58.89;101024.72;4857256;29;12525;-82
2021/03/08 07:46:37;;;;;;;;;18.75;18.75;;;;;6.45;58.13;101016.72;4873357;29;11760;-82
2021/03/08 07:49:14;;;;;;;;;21.50;20.00;;;;;6.64;57.16;101020.28;4871811;29;11745;-80
2021/03/08 07:52:00;;;;;;;;;21.50;20.25;;;;;6.91;56.39;101011.38;4863436;29;11725;-81
2021/03/08 07:54:55;;;;;;;;;10.50;10.50;;;;;7.15;55.45;101013.22;4871049;29;11707;-82
2021/03/08 07:57:37;;;;;;;;;12.00;12.00;;;;;7.22;55.01;101003.44;4859188;29;11717;-82
2021/03/08 08:00:19;;;;;;;;;14.50;14.00;;;;;7.26;54.81;101020.16;4869920;29;11715;-81
2021/03/08 08:03:16;;;;;;;;;20.75;20.75;;;;;7.52;54.54;101015.88;4877216;29;11740;-82
2021/03/08 08:06:12;;;;;;;;;15.25;15.25;;;;;7.04;52.52;101004.28;4872056;29;12581;-80
2021/03/08 08:09:10;;;;;;;;;18.00;18.00;;;;;7.08;52.16;101007.25;4870282;29;11791;-80
2021/03/08 08:11:41;;;;;;;;;9.75;9.75;;;;;6.95;53.02;101003.34;4860823;29;11712;-79
2021/03/08 08:14:41;;;;;;;;;18.25;18.25;;;;;6.93;52.43;101006.38;4873255;29;11772;-81
2021/03/08 08:17:40;;;;;;;;;18.00;18.00;;;;;7.41;51.74;101003.41;4858203;29;11688;-71
2021/03/08 08:20:36;;;;;;;;;21.25;21.25;;;;;7.71;51.02;101006.72;4868839;29;11713;-79
2021/03/08 08:23:36;;;;;;;;;22.75;20.00;;;;;8.12;49.18;101001.22;4865482;29;11843;-79
2021/03/08 08:26:33;;;;;;;;;14.50;14.50;;;;;8.27;47.25;101002.84;4869429;29;11735;-79
2021/03/08 08:29:28;;;;;;;;;19.50;18.25;;;;;7.68;48.06;101001.84;4871869;29;11714;-80
2021/03/08 08:31:58;;;;;;;;;20.00;18.50;;;;;7.41;48.46;100997.88;4872890;29;11692;-78
2021/03/08 08:34:54;;;;;;;;;18.00;18.00;;;;;8.17;48.50;101003.06;4871607;29;11776;-79
2021/03/08 08:38:11;;;;;;;;;14.25;14.25;;;;;7.95;47.17;101001.84;4874296;29;11713;-81
2021/03/08 08:41:29;;;;;;;;;16.50;16.50;;;;;8.25;47.36;100997.66;4872816;29;11682;-80
2021/03/08 08:44:29;;;;;;;;;11.75;11.75;;;;;8.09;46.99;100997.16;4873828;29;11738;-78
2021/03/08 08:47:26;;;;;;;;;16.00;16.00;;;;;7.92;48.12;101002.47;4875028;29;11685;-80
2021/03/08 08:50:24;;;;;;;;;16.50;16.50;;;;;8.69;46.42;100985.16;4865290;29;11695;-80
2021/03/08 08:53:39;;;;;;;;;21.25;21.25;;;;;8.86;45.33;100984.47;4872862;29;11720;-78
2021/03/08 08:56:48;;;;;;;;;19.25;19.25;;;;;9.00;44.31;100988.00;4874584;29;11740;-78
2021/03/08 08:59:49;;;;;;;;;17.75;17.75;;;;;9.19;44.13;100982.28;4873419;29;11741;-79
2021/03/08 09:02:45;;;;;;;;;24.00;23.00;;;;;9.39;43.59;100986.47;4872781;29;11635;-79
2021/03/08 09:05:41;;;;;;;;;19.00;18.00;;;;;9.65;43.56;100989.38;4873495;29;11768;-80
2021/03/08 09:08:30;;;;;;;;;17.75;17.75;;;;;9.53;43.22;100980.88;4872004;29;11684;-80
2021/03/08 09:11:44;;;;;;;;;17.25;17.25;;;;;10.17;41.84;100982.09;4862062;29;11684;-79
2021/03/08 09:14:37;;;;;;;;;9.50;9.50;;;;;9.84;41.84;100986.38;4875382;29;11620;-79
2021/03/08 09:17:42;;;;;;;;;17.00;15.75;;;;;9.60;42.54;100984.81;4862548;29;12304;-79
2021/03/08 09:20:37;;;;;;;;;17.75;17.75;;;;;9.51;43.08;100983.97;4870262;29;11617;-79
2021/03/08 09:23:34;;;;;;;;;18.75;18.75;;;;;9.40;42.83;100979.81;4873688;29;11635;-79
2021/03/08 09:26:37;;;;;;;;;18.75;18.00;;;;;9.53;42.88;100976.16;4864443;29;11697;-79
2021/03/08 09:29:34;;;;;;;;;17.75;17.75;;;;;9.36;41.96;100971.38;4858862;29;11670;-78
2021/03/08 09:32:30;;;;;;;;;29.00;22.50;;;;;9.33;42.18;100969.22;4861744;29;11776;-78
2021/03/08 09:35:40;;;;;;;;;19.00;19.00;;;;;9.95;41.17;100976.66;4870204;29;11604;-77
2021/03/08 09:38:35;;;;;;;;;18.00;18.00;;;;;10.20;40.77;100956.59;4873691;29;11771;-78
2021/03/08 09:41:31;;;;;;;;;20.50;20.50;;;;;10.12;39.99;100960.16;4873738;29;11672;-78
2021/03/08 09:44:39;;;;;;;;;20.25;18.50;;;;;10.52;39.73;100957.34;4870042;29;11713;-78
2021/03/08 09:47:39;;;;;;;;;19.00;19.00;;;;;10.25;39.90;100964.75;4869712;29;11615;-77
2021/03/08 09:50:42;;;;;;;;;18.75;17.75;;;;;10.34;38.74;100964.75;4868945;29;11612;-78
2021/03/08 09:53:44;;;;;;;;;23.75;21.50;;;;;9.98;39.04;100973.28;4859847;29;11779;-78
2021/03/08 09:56:41;;;;;;;;;26.25;25.25;;;;;10.57;41.48;100965.44;4861187;29;11658;-78
2021/03/08 09:59:57;;;;;;;;;19.50;19.50;;;;;10.65;40.43;100955.53;4859242;29;11757;-78
2021/03/08 10:03:11;;;;;;;;;29.00;25.75;;;;;11.28;40.02;100960.38;4875368;29;11646;-78
2021/03/08 10:05:47;;;;;;;;;20.50;17.00;;;;;10.89;39.44;100950.34;4878791;29;11681;-78
2021/03/08 10:08:43;;;;;;;;;15.75;15.75;;;;;11.27;39.46;100958.75;4872183;29;11392;-79
2021/03/08 10:11:39;;;;;;;;;20.50;20.00;;;;;11.18;39.11;100946.06;4871399;29;11392;-77
2021/03/08 10:14:31;;;;;;;;;26.50;24.25;;;;;10.81;39.76;100940.91;4861106;29;11794;-78
2021/03/08 10:17:13;;;;;;;;;13.00;13.00;;;;;10.97;39.23;100934.88;4867817;29;11642;-78
2021/03/08 10:20:05;;;;;;;;;28.00;24.25;;;;;11.06;39.32;100933.72;4871236;29;11634;-77
2021/03/08 10:23:03;;;;;;;;;24.00;24.00;;;;;10.73;39.26;100929.81;4859003;29;11698;-78
2021/03/08 10:26:13;;;;;;;;;28.25;27.00;;;;;10.92;39.33;100923.97;4870163;29;11634;-77
2021/03/08 10:28:51;;;;;;;;;27.75;26.00;;;;;10.00;40.99;100924.03;4863649;29;12096;-78
2021/03/08 10:31:51;;;;;;;;;30.00;28.75;;;;;10.01;41.45;100909.06;4872518;29;11663;-78
2021/03/08 10:34:48;;;;;;;;;23.00;22.25;;;;;10.54;41.69;100916.34;4872397;29;11668;-78
2021/03/08 10:37:44;;;;;;;;;23.75;23.75;;;;;10.72;40.44;100898.56;4870033;29;11684;-78
2021/03/08 10:40:16;;;;;;;;;25.50;25.50;;;;;11.04;38.96;100913.00;4871257;29;11693;-79
2021/03/08 10:43:11;;;;;;;;;24.75;24.75;;;;;10.58;39.42;100914.53;4872549;29;11830;-78
2021/03/08 10:45:46;;;;;;;;;21.50;21.50;;;;;10.89;39.01;100903.31;4851503;29;11748;-79
2021/03/08 10:48:13;;;;;;;;;27.25;26.25;;;;;11.07;39.34;100901.31;4852440;29;11680;-78
2021/03/08 10:50:50;;;;;;;;;27.00;27.00;;;;;10.91;39.42;100892.72;4850431;29;11771;-79
2021/03/08 10:54:03;;;;;;;;;22.00;21.75;;;;;10.72;38.82;100881.97;4857571;29;12439;-78
2021/03/08 10:56:59;;;;;;;;;25.50;24.75;;;;;10.87;38.05;100902.78;4850090;29;11659;-79
2021/03/08 10:59:57;;;;;;;;;26.50;25.00;;;;;11.08;38.06;100887.13;4852238;29;11641;-79
2021/03/08 11:02:52;;;;;;;;;23.00;22.25;;;;;10.78;38.28;100871.56;4850497;29;11765;-79
2021/03/08 11:05:22;;;;;;;;;29.25;27.50;;;;;10.36;38.19;100876.81;4852502;29;12540;-78
2021/03/08 11:07:51;;;;;;;;;24.75;24.50;;;;;10.44;38.89;100880.72;4854504;29;11659;-79
2021/03/08 11:10:48;;;;;;;;;24.75;23.50;;;;;9.73;40.78;100867.06;4853104;29;11644;-79
2021/03/08 11:13:45;;;;;;;;;23.75;23.25;;;;;9.88;40.97;100863.03;4851138;29;11644;-79
2021/03/08 11:16:51;;;;;;;;;25.75;25.50;;;;;9.59;41.53;100864.44;4862479;29;11767;-79
2021/03/08 11:19:47;;;;;;;;;24.75;24.50;;;;;9.72;42.40;100857.16;4854454;29;11649;-76
2021/03/08 11:22:31;;;;;;;;;20.50;20.50;;;;;9.84;41.19;100865.66;4854451;29;11644;-73
2021/03/08 11:25:39;;;;;;;;;24.75;24.00;;;;;9.45;42.59;100866.50;4855318;29;11638;-77
2021/03/08 11:28:40;;;;;;;;;19.50;19.50;;;;;9.43;42.65;100855.78;4854319;29;11632;-79
2021/03/08 11:31:36;;;;;;;;;23.50;23.50;;;;;9.60;41.82;100854.22;4851175;29;11657;-78
2021/03/08 11:34:40;;;;;;;;;21.00;21.00;;;;;9.53;42.11;100851.09;4848050;29;11660;-78
2021/03/08 11:37:37;;;;;;;;;26.25;25.75;;;;;9.52;42.15;100855.81;4848260;29;11656;-81
2021/03/08 11:40:34;;;;;;;;;24.00;22.50;;;;;9.67;41.23;100846.28;4847544;29;12482;-77
2021/03/08 11:43:32;;;;;;;;;27.25;25.00;;;;;9.77;40.80;100854.25;4854296;29;11652;-79
2021/03/08 11:46:28;;;;;;;;;14.00;14.00;;;;;9.70;39.67;100846.44;4870712;29;11688;-78
2021/03/08 11:49:26;;;;;;;;;17.25;17.25;;;;;9.74;39.66;100846.63;4857397;29;12382;-78
2021/03/08 11:52:22;;;;;;;;;19.25;19.25;;;;;9.80;39.78;100847.28;4868326;29;11704;-78
2021/03/08 11:55:20;;;;;;;;;24.50;23.75;;;;;9.27;41.10;100843.53;4865549;29;11655;-77
2021/03/08 11:58:19;;;;;;;;;22.75;22.75;;;;;9.37;40.56;100851.53;4869456;29;11683;-78
2021/03/08 12:01:15;;;;;;;;;24.50;24.50;;;;;9.52;40.17;100855.00;4871146;29;11728;-78
2021/03/08 12:04:11;;;;;;;;;22.25;20.00;;;;;9.47;39.29;100854.00;4858503;29;11822;-79
2021/03/08 12:07:08;;;;;;;;;19.50;19.50;;;;;9.65;39.84;100857.63;4871660;29;11630;-78
2021/03/08 12:10:06;;;;;;;;;20.50;20.50;;;;;9.60;39.43;100857.78;4868868;29;12437;-77
2021/03/08 12:13:01;;;;;;;;;23.25;23.25;;;;;9.71;39.39;100859.09;4873531;29;11682;-77
2021/03/08 12:15:57;;;;;;;;;17.00;16.00;;;;;9.81;39.37;100857.19;4871689;29;11788;-78
2021/03/08 12:18:53;;;;;;;;;22.50;22.50;;;;;9.76;39.59;100858.16;4860057;29;11640;-78
2021/03/08 12:21:49;;;;;;;;;13.50;12.00;;;;;9.72;38.07;100857.16;4874873;29;11672;-76
2021/03/08 12:24:45;;;;;;;;;17.00;17.00;;;;;9.84;38.30;100860.13;4874191;29;11668;-78
2021/03/08 12:27:41;;;;;;;;;18.25;18.25;;;;;9.90;38.11;100855.28;4874328;29;11812;-78
2021/03/08 12:30:09;;;;;;;;;18.50;17.75;;;;;9.97;37.00;100850.09;4871265;29;12483;-78
2021/03/08 12:33:07;;;;;;;;;23.00;21.50;;;;;10.00;37.12;100846.66;4872388;29;11638;-78
2021/03/08 12:36:04;;;;;;;;;20.00;19.00;;;;;9.83;37.47;100864.03;4861193;29;11658;-77
2021/03/08 12:39:01;;;;;;;;;19.25;19.25;;;;;9.81;37.95;100855.22;4861547;29;12360;-77
2021/03/08 12:41:57;;;;;;;;;19.75;19.75;;;;;9.98;37.01;100848.94;4860363;29;12438;-77
2021/03/08 12:44:54;;;;;;;;;20.25;20.25;;;;;9.64;36.74;100858.75;4872349;29;11663;-76
2021/03/08 12:47:50;;;;;;;;;22.00;22.00;;;;;9.64;38.25;100856.00;4861948;29;11715;-76
2021/03/08 12:50:32;;;;;;;;;21.75;21.75;;;;;9.34;38.48;100859.63;4874249;29;12402;-76
2021/03/08 12:53:29;;;;;;;;;26.50;26.50;;;;;9.49;39.54;100864.72;4863199;29;11639;-77
2021/03/08 12:55:57;;;;;;;;;21.75;21.75;;;;;9.53;40.19;100870.44;4872866;29;11764;-77
2021/03/08 12:58:52;;;;;;;;;27.00;27.00;;;;;9.55;40.81;100870.91;4858218;29;11654;-78
2021/03/08 13:01:29;;;;;;;;;24.75;24.75;;;;;9.55;40.63;100865.41;4871468;29;11650;-77
2021/03/08 13:04:26;;;;;;;;;20.50;20.00;;;;;9.54;40.73;100858.25;4870287;29;11680;-77